Time;durP1;ratioP1;P1;durP2;ratioP2;P2;SDS_P1;SDS_P2;PMS_P1;PMS_P2;Temp;Humidity;BMP_temperature;BMP_pressure;BME280_temperature;BME280_humidity;BME280_pressure;Samples;Min_cycle;Max_cycle;Signal;HPM_P1;HPM_P2
2022/03/10 00:01:22;;;;;;;9.25;8.75;;;;;;;-3.24;85.40;101469.50;5031957;28;20051;-70
2022/03/10 00:03:47;;;;;;;9.52;8.93;;;;;;;-3.17;86.17;101464.00;5023960;28;20053;-71
2022/03/10 00:06:13;;;;;;;8.43;8.02;;;;;;;-3.18;85.24;101457.13;4998954;28;20120;-71
2022/03/10 00:08:39;;;;;;;8.93;8.43;;;;;;;-3.11;85.41;101465.50;5025384;28;20060;-69
2022/03/10 00:11:05;;;;;;;8.98;8.48;;;;;;;-3.16;85.75;101468.31;5029709;28;20029;-74
2022/03/10 00:13:31;;;;;;;9.10;8.60;;;;;;;-3.07;86.06;101470.53;5031782;28;20033;-70
2022/03/10 00:15:59;;;;;;;8.73;8.23;;;;;;;-3.09;86.12;101468.88;5026496;28;20116;-67
2022/03/10 00:18:24;;;;;;;9.10;8.60;;;;;;;-3.12;86.32;101461.22;5032747;28;20100;-66
2022/03/10 00:20:50;;;;;;;9.00;8.50;;;;;;;-3.05;86.34;101478.22;5032859;28;20056;-66
2022/03/10 00:23:16;;;;;;;8.50;8.10;;;;;;;-3.01;85.98;101472.03;5031765;28;20021;-66
2022/03/10 00:25:41;;;;;;;10.30;9.60;;;;;;;-3.02;86.12;101478.09;5030113;28;20032;-68
2022/03/10 00:28:06;;;;;;;9.25;8.75;;;;;;;-3.12;85.95;101480.25;5024746;28;20384;-68
2022/03/10 00:30:32;;;;;;;9.15;8.65;;;;;;;-3.19;86.98;101467.59;5051425;28;20029;-68
2022/03/10 00:32:57;;;;;;;9.75;9.15;;;;;;;-3.21;87.48;101472.00;5038326;28;20410;-68
2022/03/10 00:35:24;;;;;;;9.98;9.38;;;;;;;-3.18;87.38;101477.91;5032640;28;20071;-66
2022/03/10 00:37:50;;;;;;;9.25;8.75;;;;;;;-3.14;87.14;101473.44;5040894;28;20021;-67
2022/03/10 00:40:17;;;;;;;9.40;8.90;;;;;;;-3.18;87.36;101479.66;5026087;28;20083;-67
2022/03/10 00:42:43;;;;;;;9.25;8.75;;;;;;;-3.23;87.79;101477.25;5042612;28;20514;-68
2022/03/10 00:45:10;;;;;;;8.90;8.40;;;;;;;-3.28;88.50;101479.19;5030186;28;20037;-67
2022/03/10 00:47:36;;;;;;;9.80;9.20;;;;;;;-3.27;87.79;101474.84;5030214;28;20029;-68
2022/03/10 00:50:03;;;;;;;9.90;9.30;;;;;;;-3.31;88.59;101475.88;5030437;28;20141;-66
2022/03/10 00:52:28;;;;;;;9.93;9.32;;;;;;;-3.25;88.72;101473.88;5046027;28;20112;-68
2022/03/10 00:54:54;;;;;;;9.70;9.10;;;;;;;-3.25;88.03;101471.28;5025251;28;20137;-67
2022/03/10 00:57:20;;;;;;;9.93;9.32;;;;;;;-3.32;88.90;101472.44;5051613;28;20025;-67
2022/03/10 00:59:45;;;;;;;9.55;9.05;;;;;;;-3.35;89.36;101470.81;5055191;28;20021;-68
2022/03/10 01:02:11;;;;;;;9.55;9.05;;;;;;;-3.39;89.68;101466.63;5040701;28;20046;-67
2022/03/10 01:04:36;;;;;;;9.52;9.02;;;;;;;-3.30;89.71;101465.44;5028201;28;20118;-67
2022/03/10 01:07:02;;;;;;;9.60;9.10;;;;;;;-3.26;89.18;101471.34;5034017;28;20039;-68
2022/03/10 01:09:28;;;;;;;9.63;9.13;;;;;;;-3.26;89.20;101469.59;5015688;28;20032;-68
2022/03/10 01:11:53;;;;;;;9.38;8.88;;;;;;;-3.30;89.00;101465.44;5034629;28;20029;-68
2022/03/10 01:14:19;;;;;;;9.68;9.15;;;;;;;-3.33;89.54;101476.78;5034952;28;20500;-67
2022/03/10 01:16:44;;;;;;;10.38;9.77;;;;;;;-3.38;88.90;101468.34;5035175;28;20025;-67
2022/03/10 01:19:10;;;;;;;9.15;8.65;;;;;;;-3.35;88.98;101476.00;5049592;28;20017;-68
2022/03/10 01:21:35;;;;;;;10.00;9.40;;;;;;;-3.35;88.82;101473.41;5031692;28;20036;-67
2022/03/10 01:24:01;;;;;;;9.05;8.55;;;;;;;-3.35;88.99;101481.19;5034576;28;20039;-67
2022/03/10 01:26:27;;;;;;;10.23;9.63;;;;;;;-3.34;89.38;101466.47;5034973;28;20408;-67
2022/03/10 01:28:53;;;;;;;8.90;8.40;;;;;;;-3.29;88.59;101476.66;5024253;28;20035;-67
2022/03/10 01:31:18;;;;;;;9.10;8.60;;;;;;;-3.37;89.09;101466.59;5034687;28;20033;-66
2022/03/10 01:33:44;;;;;;;9.60;9.05;;;;;;;-3.26;89.07;101479.97;5047884;28;20049;-66
2022/03/10 01:36:09;;;;;;;9.95;9.35;;;;;;;-3.28;89.01;101479.19;5035503;28;20405;-67
2022/03/10 01:38:39;;;;;;;9.10;8.60;;;;;;;-3.34;89.29;101453.50;5025973;28;20030;-67
2022/03/10 01:41:09;;;;;;;9.05;8.55;;;;;;;-3.15;88.46;101484.72;5034412;28;20021;-66
2022/03/10 01:43:57;;;;;;;8.77;8.27;;;;;;;-3.12;88.95;101484.59;5034656;28;20060;-66
2022/03/10 01:46:23;;;;;;;8.82;8.38;;;;;;;-3.13;88.68;101488.09;5025798;28;20068;-67
2022/03/10 01:48:49;;;;;;;8.82;8.35;;;;;;;-3.16;88.55;101477.81;5040095;28;20547;-68
2022/03/10 01:51:14;;;;;;;8.85;8.35;;;;;;;-3.13;88.49;101477.72;5038666;28;20124;-68
2022/03/10 01:53:42;;;;;;;8.82;8.35;;;;;;;-3.18;89.14;101497.81;5054122;28;20017;-67
2022/03/10 01:56:09;;;;;;;9.32;8.82;;;;;;;-3.23;90.37;101474.66;5022888;28;20021;-68
2022/03/10 01:58:35;;;;;;;9.13;8.63;;;;;;;-3.11;90.02;101489.72;5026800;28;20026;-67
2022/03/10 02:01:00;;;;;;;9.05;8.55;;;;;;;-3.20;90.98;101495.28;5034133;28;20030;-67
2022/03/10 02:03:26;;;;;;;8.82;8.32;;;;;;;-3.17;91.94;101502.94;5031640;28;20104;-67
2022/03/10 02:05:53;;;;;;;9.65;9.05;;;;;;;-3.18;91.79;101498.66;5032151;28;20025;-68
2022/03/10 02:11:04;;;;;;;15.57;14.07;;;;;;;-3.24;91.90;101500.66;5032454;28;20088;-67
2022/03/10 02:13:29;;;;;;;11.13;10.32;;;;;;;-3.22;92.83;101499.69;5033050;28;20025;-67
2022/03/10 02:18:38;;;;;;;8.43;8.02;;;;;;;-3.26;91.51;101492.09;5022213;28;20037;-67
2022/03/10 02:21:04;;;;;;;9.30;8.80;;;;;;;-3.18;91.93;101510.78;5043249;28;20025;-67
2022/03/10 02:23:29;;;;;;;9.00;8.50;;;;;;;-3.15;91.63;101500.31;5033594;28;20025;-67
2022/03/10 02:25:58;;;;;;;10.00;9.40;;;;;;;-3.25;91.65;101499.81;5035503;28;20029;-66
2022/03/10 02:28:26;;;;;;;10.07;9.45;;;;;;;-3.20;91.45;101508.25;5031924;28;20045;-67
2022/03/10 02:30:51;;;;;;;8.68;8.27;;;;;;;-3.23;91.20;101503.22;5033358;28;20064;-68
2022/03/10 02:33:17;;;;;;;9.15;8.65;;;;;;;-3.29;92.25;101521.63;5030932;28;20029;-67
2022/03/10 02:35:42;;;;;;;9.25;8.75;;;;;;;-3.33;91.35;101492.34;5033050;28;20078;-67
2022/03/10 02:38:08;;;;;;;9.23;8.73;;;;;;;-3.25;90.55;101510.19;5033214;28;20071;-68
2022/03/10 02:40:33;;;;;;;9.80;9.20;;;;;;;-3.28;90.76;101515.50;5033197;28;20033;-66
2022/03/10 02:42:59;;;;;;;9.10;8.60;;;;;;;-3.36;90.84;101514.97;5033343;28;20565;-68
2022/03/10 02:45:25;;;;;;;9.52;9.02;;;;;;;-3.33;91.06;101514.84;5027920;28;20033;-68
2022/03/10 02:47:50;;;;;;;9.57;9.02;;;;;;;-3.42;91.21;101515.22;5051071;28;20416;-66
2022/03/10 02:50:17;;;;;;;9.65;9.10;;;;;;;-3.43;90.97;101511.78;5034112;28;20034;-67
2022/03/10 02:52:42;;;;;;;9.48;8.98;;;;;;;-3.49;91.67;101525.00;5033008;28;20029;-66
2022/03/10 02:55:08;;;;;;;9.82;9.23;;;;;;;-3.49;92.07;101524.16;5032861;28;20036;-68
2022/03/10 02:57:37;;;;;;;10.63;9.93;;;;;;;-3.52;92.25;101537.25;5032824;28;20405;-68
2022/03/10 03:00:04;;;;;;;9.93;9.32;;;;;;;-3.47;91.89;101538.75;5039984;28;20025;-67
2022/03/10 03:02:30;;;;;;;10.20;9.60;;;;;;;-3.54;92.02;101539.03;5029070;28;20035;-68
2022/03/10 03:04:55;;;;;;;9.77;9.18;;;;;;;-3.63;92.19;101538.50;5018855;28;20393;-66
2022/03/10 03:07:21;;;;;;;9.25;8.75;;;;;;;-3.59;92.61;101538.41;5031069;28;20498;-67
2022/03/10 03:09:47;;;;;;;9.73;9.13;;;;;;;-3.79;92.63;101529.63;5032428;28;20021;-69
2022/03/10 03:12:12;;;;;;;9.48;8.98;;;;;;;-3.82;92.86;101524.53;5032552;28;20029;-67
2022/03/10 03:14:38;;;;;;;9.43;8.88;;;;;;;-3.77;93.52;101545.09;5029924;28;20095;-68
2022/03/10 03:17:04;;;;;;;9.32;8.82;;;;;;;-3.82;94.50;101552.22;5032074;28;20041;-67
2022/03/10 03:19:29;;;;;;;10.15;9.55;;;;;;;-3.85;94.59;101550.59;5035272;28;20106;-67
2022/03/10 03:21:55;;;;;;;9.90;9.30;;;;;;;-3.97;94.57;101557.06;5048148;28;20610;-67
2022/03/10 03:24:20;;;;;;;10.98;10.27;;;;;;;-4.10;95.48;101558.44;5049731;28;20025;-67
2022/03/10 03:26:46;;;;;;;9.93;9.32;;;;;;;-4.13;95.68;101540.38;5032033;28;20022;-66
2022/03/10 03:29:11;;;;;;;10.90;10.20;;;;;;;-4.19;96.26;101557.03;5021068;28;20038;-67
2022/03/10 03:31:37;;;;;;;9.95;9.35;;;;;;;-4.15;96.98;101555.16;5030534;28;20079;-67
2022/03/10 03:34:10;;;;;;;10.30;9.70;;;;;;;-4.18;96.79;101556.13;5030632;28;20057;-67
2022/03/10 03:36:40;;;;;;;10.88;10.18;;;;;;;-4.28;97.50;101552.16;5023119;28;20025;-67
2022/03/10 03:39:07;;;;;;;11.07;10.30;;;;;;;-4.28;97.83;101556.50;5031796;28;20601;-66
2022/03/10 03:41:32;;;;;;;10.38;9.75;;;;;;;-4.31;98.88;101554.03;5032165;28;20033;-67
2022/03/10 03:43:58;;;;;;;10.15;9.55;;;;;;;-4.37;98.94;101556.81;5032020;28;20431;-67
2022/03/10 03:46:24;;;;;;;10.15;9.55;;;;;;;-4.44;98.45;101571.72;5030383;28;20037;-67
2022/03/10 03:48:49;;;;;;;10.32;9.73;;;;;;;-4.43;99.37;101578.59;5032451;28;20025;-67
2022/03/10 03:51:14;;;;;;;11.00;10.30;;;;;;;-4.41;99.67;101584.56;5023463;28;20084;-67
2022/03/10 03:53:40;;;;;;;10.25;9.65;;;;;;;-4.46;99.57;101576.13;5031860;28;20018;-67
2022/03/10 03:56:05;;;;;;;10.68;9.98;;;;;;;-4.40;99.83;101588.88;5026748;28;20116;-66
2022/03/10 03:58:31;;;;;;;9.88;9.30;;;;;;;-4.32;99.00;101588.59;5042075;28;20033;-67
2022/03/10 04:00:56;;;;;;;10.23;9.65;;;;;;;-4.35;99.96;101583.50;5051510;28;20446;-68
2022/03/10 04:03:22;;;;;;;11.18;10.48;;;;;;;-4.37;100.00;101588.75;5033212;28;20496;-67
2022/03/10 04:05:48;;;;;;;10.40;9.80;;;;;;;-4.33;100.00;101579.13;5029968;28;20043;-68
2022/03/10 04:08:14;;;;;;;10.50;9.85;;;;;;;-4.32;100.00;101596.38;5030195;28;20108;-67
2022/03/10 04:10:40;;;;;;;10.77;10.07;;;;;;;-4.30;100.00;101595.41;5032841;28;20040;-67
2022/03/10 04:13:05;;;;;;;10.95;10.25;;;;;;;-4.35;100.00;101594.72;5033841;28;20057;-67
2022/03/10 04:15:32;;;;;;;10.35;9.73;;;;;;;-4.33;99.83;101600.72;5031293;28;20025;-67
2022/03/10 04:17:58;;;;;;;11.00;10.30;;;;;;;-4.31;100.00;101598.91;5037973;28;20067;-66
2022/03/10 04:20:24;;;;;;;11.45;10.65;;;;;;;-4.27;100.00;101602.22;5031544;28;20025;-67
2022/03/10 04:22:49;;;;;;;9.40;8.90;;;;;;;-4.26;100.00;101597.00;5029747;28;20496;-66
2022/03/10 04:25:15;;;;;;;9.65;9.10;;;;;;;-4.29;100.00;101596.25;5032614;28;20123;-67
2022/03/10 04:27:40;;;;;;;9.85;9.25;;;;;;;-4.24;100.00;101607.31;5031248;28;20043;-66
2022/03/10 04:30:06;;;;;;;10.68;9.98;;;;;;;-4.14;100.00;101615.59;5035968;28;20053;-68
2022/03/10 04:32:46;;;;;;;10.18;9.57;;;;;;;-4.08;100.00;101611.03;5034114;28;20476;-68
2022/03/10 04:35:14;;;;;;;9.60;9.10;;;;;;;-4.07;100.00;101614.47;5052703;28;20788;-68
2022/03/10 04:37:40;;;;;;;9.30;8.80;;;;;;;-3.91;99.83;101625.97;5054237;28;20091;-68
2022/03/10 04:40:07;;;;;;;9.80;9.20;;;;;;;-3.74;99.26;101627.97;5033896;28;20013;-69
2022/03/10 04:42:37;;;;;;;10.23;9.52;;;;;;;-3.57;98.70;101632.53;5033480;28;20045;-69
2022/03/10 04:45:05;;;;;;;9.75;9.15;;;;;;;-3.40;97.22;101635.31;5044151;28;20113;-69
2022/03/10 04:47:30;;;;;;;9.05;8.55;;;;;;;-3.34;96.78;101638.53;5030694;28;20057;-66
2022/03/10 04:49:57;;;;;;;9.50;8.90;;;;;;;-2.83;95.16;101646.94;5033688;28;20072;-67
2022/03/10 04:52:25;;;;;;;9.57;8.98;;;;;;;-2.56;92.29;101653.63;5030361;28;20018;-68
2022/03/10 04:54:51;;;;;;;8.85;8.35;;;;;;;-2.31;90.62;101644.78;5030193;28;20432;-68
2022/03/10 04:57:16;;;;;;;9.50;8.90;;;;;;;-2.17;88.88;101655.44;5034896;28;20035;-67
2022/03/10 04:59:42;;;;;;;8.68;8.15;;;;;;;-2.19;89.17;101657.28;5032575;28;20124;-68
2022/03/10 05:02:07;;;;;;;9.50;8.88;;;;;;;-2.07;88.64;101666.28;5036799;28;20095;-67
2022/03/10 05:04:33;;;;;;;8.00;7.60;;;;;;;-2.21;88.90;101672.06;5033828;28;20064;-66
2022/03/10 05:06:58;;;;;;;9.10;8.52;;;;;;;-2.67;89.83;101670.53;5026470;28;20563;-66
2022/03/10 05:09:24;;;;;;;9.38;8.82;;;;;;;-2.91;93.44;101677.56;5023628;28;20020;-66
2022/03/10 05:11:49;;;;;;;9.75;9.15;;;;;;;-2.23;90.09;101660.91;5033675;28;20665;-68
2022/03/10 05:14:15;;;;;;;10.45;9.75;;;;;;;-1.07;84.14;101681.75;5038224;28;20052;-69
2022/03/10 05:16:40;;;;;;;8.70;8.20;;;;;;;-1.10;81.74;101689.72;5035043;28;20021;-68
2022/03/10 05:19:06;;;;;;;9.45;8.85;;;;;;;0.91;74.47;101690.81;5031318;28;20400;-68
2022/03/10 05:21:31;;;;;;;8.57;8.07;;;;;;;1.83;67.69;101692.50;5029941;28;20033;-68
2022/03/10 05:23:57;;;;;;;9.35;8.75;;;;;;;2.87;64.88;101695.84;5035589;28;20519;-67
2022/03/10 05:26:22;;;;;;;8.50;8.00;;;;;;;1.55;68.65;101697.66;5034609;28;20056;-68
2022/03/10 05:28:48;;;;;;;8.43;7.93;;;;;;;2.03;65.88;101691.34;5037874;28;20099;-68
2022/03/10 05:31:13;;;;;;;8.80;8.30;;;;;;;4.36;58.60;101699.06;5048473;28;20033;-69
2022/03/10 05:33:39;;;;;;;10.48;9.77;;;;;;;4.91;57.80;101695.16;5034767;28;20056;-68
2022/03/10 05:36:04;;;;;;;9.80;9.20;;;;;;;4.78;54.54;101696.16;5026340;28;20504;-68
2022/03/10 05:38:30;;;;;;;9.85;9.25;;;;;;;3.68;58.09;101709.81;5044343;28;20437;-68
2022/03/10 05:40:55;;;;;;;8.48;7.97;;;;;;;1.00;69.42;101711.19;5032298;28;20025;-67
2022/03/10 05:43:21;;;;;;;9.13;8.63;;;;;;;0.01;74.43;101712.09;5034826;28;20025;-66
2022/03/10 05:45:46;;;;;;;9.15;8.65;;;;;;;1.00;71.13;101719.88;5049572;28;20037;-65
2022/03/10 05:48:12;;;;;;;9.73;9.13;;;;;;;-0.50;77.53;101715.53;5034065;28;20052;-65
2022/03/10 05:50:37;;;;;;;10.52;9.90;;;;;;;-0.20;77.13;101708.78;5028077;28;20060;-64
2022/03/10 05:53:03;;;;;;;9.50;9.00;;;;;;;-1.24;80.13;101725.94;5032830;28;20433;-65
2022/03/10 05:55:29;;;;;;;10.52;9.82;;;;;;;0.00;79.56;101726.06;5033062;28;20030;-64
2022/03/10 05:57:55;;;;;;;11.45;10.68;;;;;;;0.63;76.03;101733.25;5031106;28;20061;-65
2022/03/10 06:00:21;;;;;;;11.18;10.40;;;;;;;-0.87;77.64;101738.97;5035828;28;21406;-65
2022/03/10 06:02:46;;;;;;;9.57;9.00;;;;;;;0.06;78.92;101745.75;5035168;28;20030;-65
2022/03/10 06:05:12;;;;;;;9.23;8.73;;;;;;;-0.20;76.79;101744.47;5030401;28;20033;-66
2022/03/10 06:07:38;;;;;;;9.80;9.20;;;;;;;-0.35;78.21;101746.06;5042165;28;20406;-66
2022/03/10 06:10:04;;;;;;;9.02;8.52;;;;;;;1.08;73.17;101743.81;5033378;28;20433;-64
2022/03/10 06:12:30;;;;;;;9.88;9.27;;;;;;;0.13;76.41;101755.81;5049663;28;20033;-65
2022/03/10 06:15:04;;;;;;;9.75;9.15;;;;;;;-1.61;81.25;101750.16;5042166;28;20457;-64
2022/03/10 06:17:30;;;;;;;8.80;8.30;;;;;;;-1.76;82.45;101762.06;5033683;28;20104;-65
2022/03/10 06:19:55;;;;;;;10.02;9.43;;;;;;;-0.82;80.36;101759.56;5047154;28;20446;-64
2022/03/10 06:22:29;;;;;;;9.73;9.15;;;;;;;-1.08;80.42;101757.34;5037877;28;20075;-63
2022/03/10 06:24:54;;;;;;;9.90;9.30;;;;;;;-0.63;78.86;101769.97;5036240;28;20040;-63
2022/03/10 06:27:22;;;;;;;9.02;8.52;;;;;;;-1.42;79.01;101762.28;5032346;28;20028;-69
2022/03/10 06:29:49;;;;;;;9.98;9.38;;;;;;;-1.11;79.48;101771.31;5044216;28;20370;-63
2022/03/10 06:32:17;;;;;;;11.00;10.27;;;;;;;-1.18;81.59;101778.56;5034282;28;20040;-65
2022/03/10 06:34:43;;;;;;;10.10;9.50;;;;;;;-1.87;83.25;101777.25;5034147;28;20411;-63
2022/03/10 06:37:08;;;;;;;9.50;9.00;;;;;;;-1.98;85.08;101782.94;5031946;28;20116;-64
2022/03/10 06:39:35;;;;;;;10.82;10.13;;;;;;;-1.82;84.14;101783.13;5043877;28;20074;-65
2022/03/10 06:42:02;;;;;;;10.38;9.75;;;;;;;-2.49;85.11;101778.09;5037054;28;20044;-64
2022/03/10 06:44:28;;;;;;;10.60;9.93;;;;;;;-1.90;84.17;101788.66;5016234;28;20084;-65
2022/03/10 06:46:54;;;;;;;10.55;9.85;;;;;;;-1.59;80.70;101788.19;5025220;28;20025;-64
2022/03/10 06:49:21;;;;;;;11.80;10.95;;;;;;;-2.20;81.90;101777.75;5039030;28;20025;-64
2022/03/10 06:51:46;;;;;;;9.50;9.00;;;;;;;-2.25;83.11;101792.69;5036749;28;20037;-65
2022/03/10 06:54:12;;;;;;;11.27;10.48;;;;;;;-2.32;81.66;101794.69;5030287;28;20033;-65
2022/03/10 06:56:38;;;;;;;10.88;10.18;;;;;;;-1.72;78.40;101797.44;5026614;28;20188;-65
2022/03/10 06:59:04;;;;;;;10.85;10.15;;;;;;;-1.60;78.25;101809.94;5041827;28;20045;-65
2022/03/10 07:01:30;;;;;;;9.98;9.35;;;;;;;-1.21;74.36;101789.13;5031561;28;20112;-65
2022/03/10 07:03:57;;;;;;;10.27;9.68;;;;;;;-1.24;72.99;101797.06;5023033;28;20163;-65
2022/03/10 07:06:23;;;;;;;9.23;8.70;;;;;;;-1.51;72.47;101791.31;5038952;28;20718;-65
2022/03/10 07:08:49;;;;;;;10.27;9.57;;;;;;;-1.77;75.44;101795.00;5027643;28;20146;-67
2022/03/10 07:11:14;;;;;;;10.25;9.57;;;;;;;-1.31;72.95;101794.81;5029891;28;20060;-66
2022/03/10 07:13:40;;;;;;;9.68;9.18;;;;;;;-2.02;74.29;101800.41;5027372;28;20055;-66
2022/03/10 07:16:05;;;;;;;10.68;9.98;;;;;;;-2.01;74.26;101793.44;5034008;28;20017;-64
2022/03/10 07:18:31;;;;;;;9.85;9.27;;;;;;;-1.63;74.41;101810.03;5038495;28;20036;-64
2022/03/10 07:20:57;;;;;;;11.00;10.38;;;;;;;-1.12;70.29;101816.50;5036150;28;20178;-66
2022/03/10 07:23:22;;;;;;;8.77;8.27;;;;;;;-0.53;67.84;101805.09;5026417;28;20045;-67
2022/03/10 07:25:47;;;;;;;9.52;8.93;;;;;;;-0.98;70.48;101802.88;5029815;28;20526;-67
2022/03/10 07:28:13;;;;;;;10.07;9.48;;;;;;;-1.26;71.42;101808.44;5034292;28;20092;-64
2022/03/10 07:30:38;;;;;;;9.43;8.90;;;;;;;-1.59;72.09;101824.63;5030277;28;20120;-65
2022/03/10 07:33:04;;;;;;;10.20;9.57;;;;;;;-1.42;72.45;101809.13;5032040;28;20029;-67
2022/03/10 07:35:29;;;;;;;9.82;9.23;;;;;;;-1.24;71.11;101806.66;5032483;28;20128;-67
2022/03/10 07:37:58;;;;;;;10.20;9.60;;;;;;;-2.42;74.34;101815.88;5040138;28;20029;-64
2022/03/10 07:40:23;;;;;;;10.40;9.80;;;;;;;-2.35;75.20;101826.00;5030743;28;20022;-65
2022/03/10 07:42:49;;;;;;;9.80;9.27;;;;;;;-1.28;71.14;101820.69;5024995;28;20080;-65
2022/03/10 07:45:14;;;;;;;11.07;10.38;;;;;;;-1.75;73.20;101816.63;5027459;28;20495;-64
2022/03/10 07:47:40;;;;;;;10.18;9.57;;;;;;;-2.00;73.37;101814.16;5030116;28;20092;-64
2022/03/10 07:50:07;;;;;;;10.30;9.63;;;;;;;-2.24;73.29;101826.41;5031055;28;20018;-63
2022/03/10 07:52:32;;;;;;;10.32;9.70;;;;;;;-2.17;73.47;101839.16;5030633;28;20033;-67
2022/03/10 07:54:58;;;;;;;11.38;10.60;;;;;;;-2.38;75.58;101826.09;5027027;28;20045;-66
2022/03/10 07:57:23;;;;;;;11.30;10.55;;;;;;;-2.36;75.72;101824.28;5022928;28;20044;-66
2022/03/10 07:59:50;;;;;;;10.15;9.55;;;;;;;-2.01;74.25;101824.63;5025233;28;20029;-66
2022/03/10 08:02:16;;;;;;;10.50;9.82;;;;;;;-2.53;75.75;101814.56;5024073;28;20040;-64
2022/03/10 08:04:41;;;;;;;9.80;9.25;;;;;;;-2.36;74.70;101800.06;5023685;28;20038;-67
2022/03/10 08:07:07;;;;;;;10.27;9.68;;;;;;;-2.55;74.73;101837.16;5019906;28;20079;-68
2022/03/10 08:09:32;;;;;;;9.85;9.32;;;;;;;-2.28;74.74;101822.25;5022055;28;20025;-65
2022/03/10 08:11:57;;;;;;;10.25;9.65;;;;;;;-2.49;74.64;101822.25;5029733;28;20032;-68
2022/03/10 08:14:23;;;;;;;10.05;9.45;;;;;;;-2.20;74.25;101824.56;5025292;28;20033;-68
2022/03/10 08:16:48;;;;;;;10.35;9.73;;;;;;;-1.57;72.20;101835.81;5026744;28;20037;-66
2022/03/10 08:19:14;;;;;;;10.27;9.68;;;;;;;-2.06;72.93;101835.22;5019048;28;20029;-66
2022/03/10 08:21:40;;;;;;;9.63;9.07;;;;;;;-2.30;70.93;101826.66;5021122;28;20040;-68
2022/03/10 08:24:05;;;;;;;10.05;9.45;;;;;;;-2.26;70.38;101828.22;5021994;28;20071;-66
2022/03/10 08:26:31;;;;;;;9.93;9.35;;;;;;;-2.02;70.70;101834.19;5028163;28;20034;-67
2022/03/10 08:28:56;;;;;;;10.45;9.85;;;;;;;-1.92;70.46;101837.25;5031722;28;20508;-68
2022/03/10 08:31:23;;;;;;;10.63;9.93;;;;;;;-2.08;70.34;101839.63;5026381;28;20029;-69
2022/03/10 08:33:49;;;;;;;10.15;9.55;;;;;;;-2.31;71.32;101845.75;5024594;28;20052;-69
2022/03/10 08:36:14;;;;;;;11.75;10.93;;;;;;;-1.77;71.06;101843.59;5027829;28;20104;-70
2022/03/10 08:38:42;;;;;;;9.50;9.00;;;;;;;-2.17;71.74;101842.63;5020797;28;20030;-67
2022/03/10 08:41:08;;;;;;;9.43;8.93;;;;;;;-2.08;71.93;101839.63;5021107;28;20034;-67
2022/03/10 08:43:34;;;;;;;10.77;10.07;;;;;;;-2.08;73.32;101844.84;5038567;28;20048;-67
2022/03/10 08:46:02;;;;;;;9.88;9.27;;;;;;;-1.67;72.15;101848.38;5027122;28;20481;-67
2022/03/10 08:48:28;;;;;;;10.40;9.73;;;;;;;-1.37;72.20;101841.94;5025568;28;20049;-67
2022/03/10 08:50:54;;;;;;;10.10;9.50;;;;;;;-0.85;69.51;101830.91;5018110;28;20457;-66
2022/03/10 08:53:19;;;;;;;10.85;10.10;;;;;;;-0.93;69.34;101825.19;5044818;28;20108;-65
2022/03/10 08:55:45;;;;;;;8.80;8.30;;;;;;;-1.28;66.76;101851.94;5030719;28;20458;-67
2022/03/10 08:58:10;;;;;;;10.07;9.48;;;;;;;-1.42;66.68;101848.16;5016946;28;20030;-67
2022/03/10 09:00:37;;;;;;;9.45;8.95;;;;;;;-0.89;65.59;101838.91;5025256;28;20022;-68
2022/03/10 09:03:02;;;;;;;9.23;8.73;;;;;;;-1.30;66.87;101851.16;5021420;28;20033;-67
2022/03/10 09:05:28;;;;;;;11.50;10.70;;;;;;;-1.44;66.93;101855.19;5020257;28;20056;-67
2022/03/10 09:07:54;;;;;;;9.93;9.32;;;;;;;-1.16;66.24;101848.81;5024227;28;20024;-67
2022/03/10 09:10:19;;;;;;;9.55;8.98;;;;;;;-1.06;66.13;101857.06;5033077;28;20037;-66
2022/03/10 09:12:44;;;;;;;9.77;9.18;;;;;;;-0.11;65.37;101843.94;5019979;28;20030;-66
2022/03/10 09:15:10;;;;;;;9.82;9.23;;;;;;;-0.32;65.56;101843.19;5015905;28;20442;-68
2022/03/10 09:17:36;;;;;;;8.88;8.38;;;;;;;-0.80;66.38;101848.09;5026104;28;20373;-67
2022/03/10 09:20:04;;;;;;;10.80;10.02;;;;;;;-0.28;64.49;101842.16;5028554;28;20042;-68
2022/03/10 09:22:31;;;;;;;8.52;8.13;;;;;;;0.03;61.32;101834.63;5043017;28;20033;-68
2022/03/10 09:24:56;;;;;;;9.05;8.55;;;;;;;0.65;59.15;101841.91;5032559;28;20040;-67
2022/03/10 09:27:22;;;;;;;8.68;8.18;;;;;;;1.43;57.30;101837.78;5031422;28;20468;-68
2022/03/10 09:29:47;;;;;;;8.40;7.95;;;;;;;0.59;57.42;101829.19;5033494;28;20112;-67
2022/03/10 09:32:13;;;;;;;9.80;9.20;;;;;;;0.47;58.81;101828.03;5031345;28;20033;-68
2022/03/10 09:34:38;;;;;;;9.00;8.50;;;;;;;-0.50;62.90;101827.59;5036521;28;20048;-68
2022/03/10 09:37:06;;;;;;;10.05;9.45;;;;;;;-0.53;65.95;101841.59;5032175;28;20052;-68
2022/03/10 09:39:32;;;;;;;11.15;10.40;;;;;;;-0.71;69.39;101843.31;5025947;28;20026;-65
2022/03/10 09:41:59;;;;;;;9.65;9.13;;;;;;;-1.14;73.31;101854.78;5035317;28;20032;-66
2022/03/10 09:44:27;;;;;;;11.95;11.15;;;;;;;-0.26;67.76;101854.28;5039341;28;20025;-67
2022/03/10 09:46:53;;;;;;;9.15;8.65;;;;;;;-0.90;63.97;101858.91;5037525;28;20099;-66
2022/03/10 09:49:22;;;;;;;9.35;8.85;;;;;;;0.81;60.66;101837.59;5036686;28;20515;-67
2022/03/10 09:51:49;;;;;;;10.43;9.73;;;;;;;1.38;57.03;101839.78;5028457;28;20033;-67
2022/03/10 09:54:15;;;;;;;9.82;9.23;;;;;;;1.12;57.27;101829.91;5034406;28;20036;-66
2022/03/10 09:56:42;;;;;;;9.93;9.32;;;;;;;0.48;58.79;101836.69;5033562;28;20026;-66
2022/03/10 09:59:08;;;;;;;9.43;8.90;;;;;;;0.15;59.41;101837.47;5038363;28;20084;-66
2022/03/10 10:01:34;;;;;;;10.82;10.02;;;;;;;-0.47;55.85;101830.88;5035572;28;20138;-67
2022/03/10 10:03:59;;;;;;;9.77;9.18;;;;;;;0.89;52.80;101837.19;5033616;28;20053;-67
2022/03/10 10:06:25;;;;;;;9.00;8.50;;;;;;;0.27;54.38;101834.25;5035458;28;20033;-68
2022/03/10 10:08:55;;;;;;;9.52;9.02;;;;;;;0.43;55.12;101841.31;5037233;28;20029;-70
2022/03/10 10:11:34;;;;;;;9.75;9.15;;;;;;;0.29;55.17;101836.75;5031871;28;20022;-68
2022/03/10 10:14:00;;;;;;;10.20;9.60;;;;;;;-0.46;57.82;101853.44;5031907;28;20430;-69
2022/03/10 10:16:26;;;;;;;10.23;9.63;;;;;;;-1.20;62.77;101865.47;5040683;28;20116;-68
2022/03/10 10:18:56;;;;;;;9.63;9.13;;;;;;;-1.18;61.67;101869.69;5041045;28;20085;-68
2022/03/10 10:21:24;;;;;;;10.30;9.70;;;;;;;-1.36;64.62;101864.44;5031588;28;20211;-69
2022/03/10 10:23:52;;;;;;;9.70;9.20;;;;;;;-1.01;64.18;101862.91;5036570;28;20038;-67
2022/03/10 10:26:20;;;;;;;10.05;9.45;;;;;;;-1.80;72.39;101856.72;5026299;28;20036;-68
2022/03/10 10:28:47;;;;;;;10.55;9.95;;;;;;;-1.21;73.06;101868.97;5013293;28;20477;-68
2022/03/10 10:31:14;;;;;;;10.40;9.80;;;;;;;-1.52;74.15;101866.84;5042558;28;20064;-68
2022/03/10 10:33:41;;;;;;;10.20;9.60;;;;;;;-1.54;75.41;101866.03;5036135;28;20052;-69
2022/03/10 10:36:23;;;;;;;10.05;9.48;;;;;;;-1.51;74.77;101876.34;5022017;28;20044;-69
2022/03/10 10:38:49;;;;;;;10.05;9.45;;;;;;;-1.05;73.30;101867.41;5019817;28;20017;-66
2022/03/10 10:41:18;;;;;;;10.60;10.00;;;;;;;-0.98;74.58;101845.38;5032326;28;20029;-68
2022/03/10 10:43:49;;;;;;;10.10;9.50;;;;;;;-1.49;80.16;101864.94;5024156;28;20505;-67
2022/03/10 10:46:33;;;;;;;10.77;10.07;;;;;;;-2.50;85.65;101857.75;5029590;28;20056;-69
2022/03/10 10:49:05;;;;;;;9.43;8.93;;;;;;;-1.59;84.00;101850.63;5026579;28;20128;-69
2022/03/10 10:51:36;;;;;;;10.43;9.75;;;;;;;0.02;77.17;101844.22;5024876;28;20033;-68
2022/03/10 10:54:05;;;;;;;9.85;9.25;;;;;;;-0.19;73.31;101840.88;5041670;28;20107;-69
2022/03/10 10:56:33;;;;;;;9.07;8.57;;;;;;;0.17;72.17;101840.00;5031718;28;20035;-69
2022/03/10 10:59:00;;;;;;;8.77;8.30;;;;;;;-0.38;66.58;101832.22;5051523;28;20033;-69
2022/03/10 11:01:29;;;;;;;9.27;8.77;;;;;;;-0.36;62.58;101838.22;5029600;28;20116;-69
2022/03/10 11:03:55;;;;;;;9.07;8.57;;;;;;;-0.52;60.19;101837.22;5024847;28;20085;-68
2022/03/10 11:06:21;;;;;;;9.50;9.00;;;;;;;-0.10;58.46;101834.34;5035567;28;20428;-68
2022/03/10 11:08:47;;;;;;;9.30;8.80;;;;;;;-0.40;55.71;101829.69;5041494;28;20033;-68
2022/03/10 11:11:14;;;;;;;9.35;8.85;;;;;;;0.05;54.53;101823.19;5041349;28;20407;-69
2022/03/10 11:13:40;;;;;;;9.25;8.75;;;;;;;-0.16;51.77;101817.22;5034603;28;20029;-69
2022/03/10 11:16:07;;;;;;;10.82;10.13;;;;;;;0.61;50.72;101818.66;5014342;28;20436;-69
2022/03/10 11:18:34;;;;;;;9.35;8.85;;;;;;;0.09;52.33;101818.66;5036487;28;20043;-69
2022/03/10 11:21:21;;;;;;;9.50;8.88;;;;;;;0.39;50.88;101832.78;5029391;28;20392;-69
2022/03/10 11:24:23;;;;;;;9.88;9.27;;;;;;;-0.37;51.92;101831.28;5032567;28;20488;-69